sensor_id;sensor_type;location;lat;lon;timestamp;pressure;altitude;pressure_sealevel;temperature;humidity
49194;BME280;35029;50.804;12.866;2023-03-04T00:00:09;98171.84;;;-0.87;100.00
49194;BME280;35029;50.804;12.866;2023-03-04T00:02:38;98176.56;;;-0.81;100.00
49194;BME280;35029;50.804;12.866;2023-03-04T00:05:04;98180.97;;;-0.81;100.00
49194;BME280;35029;50.804;12.866;2023-03-04T00:07:29;98153.44;;;-0.97;100.00
49194;BME280;35029;50.804;12.866;2023-03-04T00:09:55;98179.03;;;-0.91;100.00
49194;BME280;35029;50.804;12.866;2023-03-04T00:12:20;98171.91;;;-0.89;100.00
49194;BME280;35029;50.804;12.866;2023-03-04T00:14:46;98167.88;;;-0.93;100.00
49194;BME280;35029;50.804;12.866;2023-03-04T00:17:11;98159.13;;;-0.92;100.00
49194;BME280;35029;50.804;12.866;2023-03-04T00:19:37;98173.28;;;-0.83;100.00
49194;BME280;35029;50.804;12.866;2023-03-04T00:22:03;98158.19;;;-0.91;100.00
49194;BME280;35029;50.804;12.866;2023-03-04T00:24:29;98169.31;;;-0.89;100.00
49194;BME280;35029;50.804;12.866;2023-03-04T00:26:54;98126.31;;;-1.06;100.00
49194;BME280;35029;50.804;12.866;2023-03-04T00:29:20;98150.75;;;-0.95;100.00
49194;BME280;35029;50.804;12.866;2023-03-04T00:31:47;98157.16;;;-0.88;100.00
49194;BME280;35029;50.804;12.866;2023-03-04T00:34:12;98153.22;;;-0.94;100.00
49194;BME280;35029;50.804;12.866;2023-03-04T00:36:38;98154.56;;;-0.88;100.00
49194;BME280;35029;50.804;12.866;2023-03-04T00:39:04;98142.59;;;-0.91;100.00
49194;BME280;35029;50.804;12.866;2023-03-04T00:41:30;98145.06;;;-0.89;100.00
49194;BME280;35029;50.804;12.866;2023-03-04T00:43:56;98142.03;;;-0.83;100.00
49194;BME280;35029;50.804;12.866;2023-03-04T00:46:21;98152.38;;;-0.94;100.00
49194;BME280;35029;50.804;12.866;2023-03-04T00:48:47;98138.78;;;-0.98;100.00
49194;BME280;35029;50.804;12.866;2023-03-04T00:51:12;98138.00;;;-0.87;100.00
49194;BME280;35029;50.804;12.866;2023-03-04T00:53:38;98131.97;;;-1.12;100.00
49194;BME280;35029;50.804;12.866;2023-03-04T00:56:04;98126.06;;;-1.14;100.00
49194;BME280;35029;50.804;12.866;2023-03-04T00:58:30;98134.75;;;-1.02;100.00
49194;BME280;35029;50.804;12.866;2023-03-04T01:00:55;98137.63;;;-0.94;100.00
49194;BME280;35029;50.804;12.866;2023-03-04T01:03:21;98130.13;;;-0.98;100.00
49194;BME280;35029;50.804;12.866;2023-03-04T01:05:47;98103.06;;;-1.20;100.00
49194;BME280;35029;50.804;12.866;2023-03-04T01:08:13;98114.56;;;-1.23;100.00
49194;BME280;35029;50.804;12.866;2023-03-04T01:10:38;98123.81;;;-1.18;100.00
49194;BME280;35029;50.804;12.866;2023-03-04T01:13:04;98095.13;;;-1.30;100.00
49194;BME280;35029;50.804;12.866;2023-03-04T01:15:30;98100.13;;;-1.27;100.00
49194;BME280;35029;50.804;12.866;2023-03-04T01:17:56;98109.50;;;-1.13;100.00
49194;BME280;35029;50.804;12.866;2023-03-04T01:20:22;98105.91;;;-1.23;100.00
49194;BME280;35029;50.804;12.866;2023-03-04T01:22:47;98095.50;;;-1.23;100.00
49194;BME280;35029;50.804;12.866;2023-03-04T01:25:13;98103.06;;;-1.20;100.00
49194;BME280;35029;50.804;12.866;2023-03-04T01:27:39;98121.56;;;-1.12;100.00
49194;BME280;35029;50.804;12.866;2023-03-04T01:30:05;98113.56;;;-1.09;100.00
49194;BME280;35029;50.804;12.866;2023-03-04T01:32:31;98101.25;;;-1.07;100.00
49194;BME280;35029;50.804;12.866;2023-03-04T01:34:56;98090.25;;;-1.10;100.00
49194;BME280;35029;50.804;12.866;2023-03-04T01:37:22;98099.44;;;-1.17;100.00
49194;BME280;35029;50.804;12.866;2023-03-04T01:39:48;98098.13;;;-1.12;100.00
49194;BME280;35029;50.804;12.866;2023-03-04T01:42:18;98103.03;;;-1.07;100.00
49194;BME280;35029;50.804;12.866;2023-03-04T01:44:46;98093.44;;;-1.07;100.00
49194;BME280;35029;50.804;12.866;2023-03-04T01:47:12;98099.28;;;-0.92;100.00
49194;BME280;35029;50.804;12.866;2023-03-04T01:49:39;98090.88;;;-0.95;100.00
49194;BME280;35029;50.804;12.866;2023-03-04T01:52:05;98081.75;;;-1.01;100.00
49194;BME280;35029;50.804;12.866;2023-03-04T01:54:34;98074.63;;;-1.10;100.00
49194;BME280;35029;50.804;12.866;2023-03-04T01:57:00;98080.09;;;-1.02;100.00
49194;BME280;35029;50.804;12.866;2023-03-04T01:59:29;98070.25;;;-1.10;100.00
49194;BME280;35029;50.804;12.866;2023-03-04T02:01:58;98058.84;;;-1.20;100.00
49194;BME280;35029;50.804;12.866;2023-03-04T02:04:26;98066.91;;;-1.12;100.00
49194;BME280;35029;50.804;12.866;2023-03-04T02:06:53;98064.50;;;-1.02;100.00
49194;BME280;35029;50.804;12.866;2023-03-04T02:09:19;98066.34;;;-1.15;100.00
49194;BME280;35029;50.804;12.866;2023-03-04T02:11:46;98081.72;;;-1.12;100.00
49194;BME280;35029;50.804;12.866;2023-03-04T02:14:14;98053.81;;;-1.10;100.00
49194;BME280;35029;50.804;12.866;2023-03-04T02:16:39;98047.63;;;-1.21;100.00
49194;BME280;35029;50.804;12.866;2023-03-04T02:19:35;98062.69;;;-1.13;100.00
49194;BME280;35029;50.804;12.866;2023-03-04T02:22:04;98037.34;;;-1.22;100.00
49194;BME280;35029;50.804;12.866;2023-03-04T02:24:46;98055.13;;;-1.05;100.00
49194;BME280;35029;50.804;12.866;2023-03-04T02:27:14;98035.69;;;-1.23;100.00
49194;BME280;35029;50.804;12.866;2023-03-04T02:29:40;98052.03;;;-1.10;100.00
49194;BME280;35029;50.804;12.866;2023-03-04T02:32:09;98050.50;;;-1.01;100.00
49194;BME280;35029;50.804;12.866;2023-03-04T02:34:45;98056.09;;;-0.94;100.00
49194;BME280;35029;50.804;12.866;2023-03-04T02:37:12;98033.16;;;-1.00;100.00
49194;BME280;35029;50.804;12.866;2023-03-04T02:39:42;98043.06;;;-0.94;100.00
49194;BME280;35029;50.804;12.866;2023-03-04T02:42:10;98053.59;;;-0.96;100.00
49194;BME280;35029;50.804;12.866;2023-03-04T02:44:45;98049.56;;;-1.00;100.00
49194;BME280;35029;50.804;12.866;2023-03-04T02:47:16;98055.47;;;-1.09;100.00
49194;BME280;35029;50.804;12.866;2023-03-04T02:49:45;98052.78;;;-1.08;100.00
49194;BME280;35029;50.804;12.866;2023-03-04T02:52:18;98049.69;;;-1.02;100.00
49194;BME280;35029;50.804;12.866;2023-03-04T02:54:44;98042.00;;;-1.14;100.00
49194;BME280;35029;50.804;12.866;2023-03-04T02:57:12;98029.91;;;-1.15;100.00
49194;BME280;35029;50.804;12.866;2023-03-04T02:59:41;98041.88;;;-1.13;100.00
49194;BME280;35029;50.804;12.866;2023-03-04T03:02:10;98033.22;;;-1.13;100.00
49194;BME280;35029;50.804;12.866;2023-03-04T03:04:38;98037.16;;;-1.08;100.00
49194;BME280;35029;50.804;12.866;2023-03-04T03:07:07;98018.78;;;-1.17;100.00
49194;BME280;35029;50.804;12.866;2023-03-04T03:09:33;98014.53;;;-1.18;100.00
49194;BME280;35029;50.804;12.866;2023-03-04T03:11:59;98005.66;;;-1.16;100.00
49194;BME280;35029;50.804;12.866;2023-03-04T03:14:25;98023.78;;;-1.03;100.00
49194;BME280;35029;50.804;12.866;2023-03-04T03:16:51;98013.00;;;-1.10;100.00
49194;BME280;35029;50.804;12.866;2023-03-04T03:19:17;98019.09;;;-0.98;100.00
49194;BME280;35029;50.804;12.866;2023-03-04T03:21:42;98005.56;;;-1.03;100.00
49194;BME280;35029;50.804;12.866;2023-03-04T03:24:09;97999.88;;;-1.08;100.00
49194;BME280;35029;50.804;12.866;2023-03-04T03:26:35;98022.13;;;-0.93;100.00
49194;BME280;35029;50.804;12.866;2023-03-04T03:29:00;98005.13;;;-0.86;100.00
49194;BME280;35029;50.804;12.866;2023-03-04T03:31:27;97992.69;;;-0.82;100.00
49194;BME280;35029;50.804;12.866;2023-03-04T03:33:53;97988.44;;;-0.94;100.00
49194;BME280;35029;50.804;12.866;2023-03-04T03:36:19;97983.09;;;-0.93;100.00
49194;BME280;35029;50.804;12.866;2023-03-04T03:38:44;98001.59;;;-0.84;100.00
49194;BME280;35029;50.804;12.866;2023-03-04T03:41:10;97990.56;;;-0.88;100.00
49194;BME280;35029;50.804;12.866;2023-03-04T03:43:35;97984.28;;;-0.97;100.00
49194;BME280;35029;50.804;12.866;2023-03-04T03:46:01;97997.81;;;-0.80;100.00
49194;BME280;35029;50.804;12.866;2023-03-04T03:48:27;97962.66;;;-0.97;100.00
49194;BME280;35029;50.804;12.866;2023-03-04T03:50:53;97986.91;;;-0.86;100.00
49194;BME280;35029;50.804;12.866;2023-03-04T03:53:18;97986.06;;;-0.97;100.00
49194;BME280;35029;50.804;12.866;2023-03-04T03:55:44;97983.81;;;-0.91;100.00
49194;BME280;35029;50.804;12.866;2023-03-04T03:58:11;97965.59;;;-0.91;100.00
49194;BME280;35029;50.804;12.866;2023-03-04T04:00:37;97985.00;;;-0.83;100.00
49194;BME280;35029;50.804;12.866;2023-03-04T04:03:02;97984.53;;;-0.89;100.00
49194;BME280;35029;50.804;12.866;2023-03-04T04:05:28;97996.72;;;-0.78;100.00
49194;BME280;35029;50.804;12.866;2023-03-04T04:07:55;97998.03;;;-0.83;100.00
49194;BME280;35029;50.804;12.866;2023-03-04T04:10:21;98004.41;;;-0.88;100.00
49194;BME280;35029;50.804;12.866;2023-03-04T04:12:46;97997.44;;;-0.87;100.00
49194;BME280;35029;50.804;12.866;2023-03-04T04:15:12;98008.56;;;-0.74;100.00
49194;BME280;35029;50.804;12.866;2023-03-04T04:17:38;98006.69;;;-0.72;100.00
49194;BME280;35029;50.804;12.866;2023-03-04T04:20:06;97992.94;;;-0.85;100.00
49194;BME280;35029;50.804;12.866;2023-03-04T04:22:32;98000.63;;;-0.83;100.00
49194;BME280;35029;50.804;12.866;2023-03-04T04:24:57;97990.22;;;-0.83;100.00
49194;BME280;35029;50.804;12.866;2023-03-04T04:27:23;98011.53;;;-0.67;100.00
49194;BME280;35029;50.804;12.866;2023-03-04T04:29:49;97997.94;;;-0.71;100.00
49194;BME280;35029;50.804;12.866;2023-03-04T04:32:15;98001.47;;;-0.72;100.00
49194;BME280;35029;50.804;12.866;2023-03-04T04:34:41;98003.25;;;-0.72;100.00
49194;BME280;35029;50.804;12.866;2023-03-04T04:37:07;98013.53;;;-0.59;100.00
49194;BME280;35029;50.804;12.866;2023-03-04T04:39:32;98000.53;;;-0.71;100.00
49194;BME280;35029;50.804;12.866;2023-03-04T04:41:58;98012.50;;;-0.68;100.00
49194;BME280;35029;50.804;12.866;2023-03-04T04:44:24;98012.25;;;-0.65;100.00
49194;BME280;35029;50.804;12.866;2023-03-04T04:46:49;98010.81;;;-0.58;100.00
49194;BME280;35029;50.804;12.866;2023-03-04T04:49:15;98007.84;;;-0.64;100.00
49194;BME280;35029;50.804;12.866;2023-03-04T04:51:40;98012.72;;;-0.60;100.00
49194;BME280;35029;50.804;12.866;2023-03-04T04:54:07;97994.97;;;-0.66;100.00
49194;BME280;35029;50.804;12.866;2023-03-04T04:56:33;98009.88;;;-0.57;100.00
49194;BME280;35029;50.804;12.866;2023-03-04T04:59:02;97985.97;;;-0.84;100.00
49194;BME280;35029;50.804;12.866;2023-03-04T05:01:29;98006.56;;;-0.59;100.00
49194;BME280;35029;50.804;12.866;2023-03-04T05:03:54;98009.88;;;-0.57;100.00
49194;BME280;35029;50.804;12.866;2023-03-04T05:06:22;97979.09;;;-0.74;100.00
49194;BME280;35029;50.804;12.866;2023-03-04T05:08:49;98013.19;;;-0.55;100.00
49194;BME280;35029;50.804;12.866;2023-03-04T05:11:15;98002.19;;;-0.58;100.00
49194;BME280;35029;50.804;12.866;2023-03-04T05:13:41;98015.94;;;-0.45;100.00
49194;BME280;35029;50.804;12.866;2023-03-04T05:16:07;98010.81;;;-0.46;100.00
49194;BME280;35029;50.804;12.866;2023-03-04T05:18:34;98009.38;;;-0.51;100.00
49194;BME280;35029;50.804;12.866;2023-03-04T05:21:02;97996.03;;;-0.57;100.00
49194;BME280;35029;50.804;12.866;2023-03-04T05:23:30;98019.81;;;-0.39;100.00
49194;BME280;35029;50.804;12.866;2023-03-04T05:25:56;98016.13;;;-0.48;100.00
49194;BME280;35029;50.804;12.866;2023-03-04T05:28:22;98012.47;;;-0.45;100.00
49194;BME280;35029;50.804;12.866;2023-03-04T05:30:47;98007.41;;;-0.58;100.00
49194;BME280;35029;50.804;12.866;2023-03-04T05:33:14;98019.34;;;-0.44;100.00
49194;BME280;35029;50.804;12.866;2023-03-04T05:35:41;98011.91;;;-0.49;100.00
49194;BME280;35029;50.804;12.866;2023-03-04T05:38:10;98012.59;;;-0.47;100.00
49194;BME280;35029;50.804;12.866;2023-03-04T05:40:36;98024.09;;;-0.38;100.00
49194;BME280;35029;50.804;12.866;2023-03-04T05:43:03;98007.13;;;-0.44;100.00
49194;BME280;35029;50.804;12.866;2023-03-04T05:45:29;98015.56;;;-0.40;100.00
49194;BME280;35029;50.804;12.866;2023-03-04T05:47:55;98014.13;;;-0.44;100.00
49194;BME280;35029;50.804;12.866;2023-03-04T05:50:23;98013.88;;;-0.41;100.00
49194;BME280;35029;50.804;12.866;2023-03-04T05:52:51;98007.06;;;-0.42;100.00
49194;BME280;35029;50.804;12.866;2023-03-04T05:55:18;98006.19;;;-0.43;100.00
49194;BME280;35029;50.804;12.866;2023-03-04T05:57:43;98003.94;;;-0.36;100.00
49194;BME280;35029;50.804;12.866;2023-03-04T06:00:10;98004.91;;;-0.26;100.00
49194;BME280;35029;50.804;12.866;2023-03-04T06:02:41;98002.72;;;-0.21;100.00
49194;BME280;35029;50.804;12.866;2023-03-04T06:05:12;97996.84;;;-0.23;100.00
49194;BME280;35029;50.804;12.866;2023-03-04T06:07:39;97985.00;;;-0.27;100.00
49194;BME280;35029;50.804;12.866;2023-03-04T06:10:08;97981.78;;;-0.30;100.00
49194;BME280;35029;50.804;12.866;2023-03-04T06:12:34;98001.44;;;-0.15;100.00
49194;BME280;35029;50.804;12.866;2023-03-04T06:15:00;97991.63;;;-0.23;100.00
49194;BME280;35029;50.804;12.866;2023-03-04T06:17:28;97979.19;;;-0.30;100.00
49194;BME280;35029;50.804;12.866;2023-03-04T06:19:54;97992.22;;;-0.19;100.00
49194;BME280;35029;50.804;12.866;2023-03-04T06:22:19;97978.59;;;-0.23;100.00
49194;BME280;35029;50.804;12.866;2023-03-04T06:24:45;97996.59;;;-0.20;100.00
49194;BME280;35029;50.804;12.866;2023-03-04T06:27:10;97991.38;;;-0.20;100.00
49194;BME280;35029;50.804;12.866;2023-03-04T06:29:37;97991.72;;;-0.13;100.00
49194;BME280;35029;50.804;12.866;2023-03-04T06:32:03;97999.41;;;-0.11;100.00
49194;BME280;35029;50.804;12.866;2023-03-04T06:34:30;97980.94;;;-0.20;100.00
49194;BME280;35029;50.804;12.866;2023-03-04T06:36:58;97981.41;;;-0.14;100.00
49194;BME280;35029;50.804;12.866;2023-03-04T06:39:25;97990.19;;;-0.15;100.00
49194;BME280;35029;50.804;12.866;2023-03-04T06:41:50;97983.22;;;-0.15;100.00
49194;BME280;35029;50.804;12.866;2023-03-04T06:44:16;97988.50;;;-0.17;100.00
49194;BME280;35029;50.804;12.866;2023-03-04T06:46:42;97982.59;;;-0.07;100.00
49194;BME280;35029;50.804;12.866;2023-03-04T06:49:07;97997.50;;;0.02;100.00
49194;BME280;35029;50.804;12.866;2023-03-04T06:51:33;97998.31;;;0.03;100.00
49194;BME280;35029;50.804;12.866;2023-03-04T06:54:01;98013.00;;;0.04;100.00
49194;BME280;35029;50.804;12.866;2023-03-04T06:56:26;97990.75;;;-0.01;100.00
49194;BME280;35029;50.804;12.866;2023-03-04T06:58:53;98012.53;;;0.10;100.00
49194;BME280;35029;50.804;12.866;2023-03-04T07:01:24;97996.28;;;0.06;100.00
49194;BME280;35029;50.804;12.866;2023-03-04T07:03:51;97987.31;;;-0.01;100.00
49194;BME280;35029;50.804;12.866;2023-03-04T07:06:20;97997.38;;;0.04;100.00
49194;BME280;35029;50.804;12.866;2023-03-04T07:08:48;98009.78;;;0.11;100.00
49194;BME280;35029;50.804;12.866;2023-03-04T07:11:14;97989.53;;;0.04;100.00
49194;BME280;35029;50.804;12.866;2023-03-04T07:13:39;98001.59;;;0.16;100.00
49194;BME280;35029;50.804;12.866;2023-03-04T07:16:07;97968.22;;;-0.02;100.00
49194;BME280;35029;50.804;12.866;2023-03-04T07:18:34;98008.72;;;0.14;100.00
49194;BME280;35029;50.804;12.866;2023-03-04T07:21:00;97999.44;;;0.21;100.00
49194;BME280;35029;50.804;12.866;2023-03-04T07:23:26;97999.31;;;0.23;100.00
49194;BME280;35029;50.804;12.866;2023-03-04T07:25:52;97998.50;;;0.22;100.00
49194;BME280;35029;50.804;12.866;2023-03-04T07:28:17;98005.94;;;0.27;100.00
49194;BME280;35029;50.804;12.866;2023-03-04T07:30:43;98006.78;;;0.27;100.00
49194;BME280;35029;50.804;12.866;2023-03-04T07:33:09;98008.88;;;0.33;100.00
49194;BME280;35029;50.804;12.866;2023-03-04T07:35:34;97983.00;;;0.21;100.00
49194;BME280;35029;50.804;12.866;2023-03-04T07:38:00;97989.75;;;0.12;100.00
49194;BME280;35029;50.804;12.866;2023-03-04T07:40:26;98004.88;;;0.29;100.00
49194;BME280;35029;50.804;12.866;2023-03-04T07:42:52;97998.38;;;0.24;100.00
49194;BME280;35029;50.804;12.866;2023-03-04T07:45:19;97982.06;;;0.10;100.00
49194;BME280;35029;50.804;12.866;2023-03-04T07:47:45;98005.94;;;0.27;100.00
49194;BME280;35029;50.804;12.866;2023-03-04T07:50:11;97999.31;;;0.23;100.00
49194;BME280;35029;50.804;12.866;2023-03-04T07:52:38;97994.38;;;0.20;100.00
49194;BME280;35029;50.804;12.866;2023-03-04T07:55:06;97999.44;;;0.54;100.00
49194;BME280;35029;50.804;12.866;2023-03-04T07:57:32;97996.66;;;0.45;100.00
49194;BME280;35029;50.804;12.866;2023-03-04T07:59:58;98001.16;;;0.43;100.00
49194;BME280;35029;50.804;12.866;2023-03-04T08:02:24;97987.66;;;0.38;100.00
49194;BME280;35029;50.804;12.866;2023-03-04T08:04:50;97994.59;;;0.49;100.00
49194;BME280;35029;50.804;12.866;2023-03-04T08:07:15;97985.75;;;0.40;100.00
49194;BME280;35029;50.804;12.866;2023-03-04T08:09:42;97996.38;;;0.48;100.00
49194;BME280;35029;50.804;12.866;2023-03-04T08:12:08;97990.50;;;0.35;100.00
49194;BME280;35029;50.804;12.866;2023-03-04T08:14:34;97997.84;;;0.41;100.00
49194;BME280;35029;50.804;12.866;2023-03-04T08:16:59;97997.09;;;0.50;100.00
49194;BME280;35029;50.804;12.866;2023-03-04T08:19:25;97988.38;;;0.40;100.00
49194;BME280;35029;50.804;12.866;2023-03-04T08:21:50;97995.44;;;0.49;100.00
49194;BME280;35029;50.804;12.866;2023-03-04T08:24:16;97989.56;;;0.57;100.00
49194;BME280;35029;50.804;12.866;2023-03-04T08:26:45;97975.78;;;0.45;100.00
49194;BME280;35029;50.804;12.866;2023-03-04T08:29:14;97976.00;;;0.42;100.00
49194;BME280;35029;50.804;12.866;2023-03-04T08:31:40;97983.81;;;0.54;100.00
49194;BME280;35029;50.804;12.866;2023-03-04T08:34:07;97984.31;;;0.69;100.00
49194;BME280;35029;50.804;12.866;2023-03-04T08:36:35;97996.72;;;0.76;100.00
49194;BME280;35029;50.804;12.866;2023-03-04T08:39:04;98000.53;;;0.72;100.00
49194;BME280;35029;50.804;12.866;2023-03-04T08:41:30;97973.44;;;0.63;100.00
49194;BME280;35029;50.804;12.866;2023-03-04T08:43:56;97949.56;;;0.47;100.00
49194;BME280;35029;50.804;12.866;2023-03-04T08:46:21;97976.38;;;0.70;100.00
49194;BME280;35029;50.804;12.866;2023-03-04T08:48:47;97977.06;;;0.72;100.00
49194;BME280;35029;50.804;12.866;2023-03-04T08:51:14;97988.06;;;0.76;100.00
49194;BME280;35029;50.804;12.866;2023-03-04T08:53:40;97987.69;;;1.01;100.00
49194;BME280;35029;50.804;12.866;2023-03-04T08:56:06;97987.19;;;0.87;100.00
49194;BME280;35029;50.804;12.866;2023-03-04T08:58:32;97983.84;;;0.84;100.00
49194;BME280;35029;50.804;12.866;2023-03-04T09:00:59;97967.97;;;0.88;100.00
49194;BME280;35029;50.804;12.866;2023-03-04T09:03:25;97965.34;;;0.88;100.00
49194;BME280;35029;50.804;12.866;2023-03-04T09:05:51;97978.31;;;0.99;100.00
49194;BME280;35029;50.804;12.866;2023-03-04T09:08:16;97975.03;;;0.97;100.00
49194;BME280;35029;50.804;12.866;2023-03-04T09:10:43;97986.50;;;1.15;100.00
49194;BME280;35029;50.804;12.866;2023-03-04T09:13:09;97964.69;;;1.16;100.00
49194;BME280;35029;50.804;12.866;2023-03-04T09:15:37;97972.41;;;1.28;100.00
49194;BME280;35029;50.804;12.866;2023-03-04T09:18:04;97970.06;;;1.25;100.00
49194;BME280;35029;50.804;12.866;2023-03-04T09:20:30;97975.69;;;1.20;100.00
49194;BME280;35029;50.804;12.866;2023-03-04T09:22:56;97948.69;;;1.10;100.00
49194;BME280;35029;50.804;12.866;2023-03-04T09:25:22;97960.31;;;1.27;100.00
49194;BME280;35029;50.804;12.866;2023-03-04T09:27:47;97964.63;;;1.38;100.00
49194;BME280;35029;50.804;12.866;2023-03-04T09:30:13;97958.84;;;1.34;100.00
49194;BME280;35029;50.804;12.866;2023-03-04T09:32:39;97964.06;;;1.34;100.00
49194;BME280;35029;50.804;12.866;2023-03-04T09:35:06;97958.16;;;1.42;100.00
49194;BME280;35029;50.804;12.866;2023-03-04T09:37:32;97952.66;;;1.35;100.00
49194;BME280;35029;50.804;12.866;2023-03-04T09:39:58;97955.03;;;1.48;100.00
49194;BME280;35029;50.804;12.866;2023-03-04T09:42:27;97960.94;;;1.50;100.00
49194;BME280;35029;50.804;12.866;2023-03-04T09:44:54;97938.66;;;1.46;100.00
49194;BME280;35029;50.804;12.866;2023-03-04T09:47:22;97961.25;;;1.57;100.00
49194;BME280;35029;50.804;12.866;2023-03-04T09:50:01;97955.22;;;1.66;100.00
49194;BME280;35029;50.804;12.866;2023-03-04T09:55:27;97947.22;;;1.58;100.00
49194;BME280;35029;50.804;12.866;2023-03-04T10:00:52;97939.03;;;1.82;100.00
49194;BME280;35029;50.804;12.866;2023-03-04T10:03:24;97947.84;;;1.91;100.00
49194;BME280;35029;50.804;12.866;2023-03-04T10:06:05;97939.47;;;1.97;100.00
49194;BME280;35029;50.804;12.866;2023-03-04T10:08:44;97937.16;;;2.03;100.00
49194;BME280;35029;50.804;12.866;2023-03-04T10:16:58;97925.84;;;2.03;100.00
49194;BME280;35029;50.804;12.866;2023-03-04T10:21:58;97935.19;;;2.15;100.00
49194;BME280;35029;50.804;12.866;2023-03-04T10:24:27;97925.16;;;2.11;100.00
49194;BME280;35029;50.804;12.866;2023-03-04T10:27:03;97918.41;;;2.18;100.00
49194;BME280;35029;50.804;12.866;2023-03-04T10:29:31;97920.50;;;2.14;100.00
49194;BME280;35029;50.804;12.866;2023-03-04T10:31:57;97933.00;;;2.20;100.00
49194;BME280;35029;50.804;12.866;2023-03-04T10:34:23;97911.66;;;2.06;100.00
49194;BME280;35029;50.804;12.866;2023-03-04T10:36:57;97904.38;;;2.09;100.00
49194;BME280;35029;50.804;12.866;2023-03-04T10:39:29;97886.22;;;2.17;100.00
49194;BME280;35029;50.804;12.866;2023-03-04T10:44:57;97914.56;;;2.32;100.00
49194;BME280;35029;50.804;12.866;2023-03-04T10:47:28;97914.56;;;2.42;100.00
49194;BME280;35029;50.804;12.866;2023-03-04T10:50:01;97915.09;;;2.45;100.00
49194;BME280;35029;50.804;12.866;2023-03-04T10:52:37;97898.88;;;2.42;100.00
49194;BME280;35029;50.804;12.866;2023-03-04T10:55:23;97917.72;;;2.55;100.00
49194;BME280;35029;50.804;12.866;2023-03-04T10:57:54;97919.34;;;2.56;99.72
49194;BME280;35029;50.804;12.866;2023-03-04T11:00:25;97919.09;;;2.49;99.74
49194;BME280;35029;50.804;12.866;2023-03-04T11:02:51;97912.75;;;2.42;98.95
49194;BME280;35029;50.804;12.866;2023-03-04T11:05:23;97885.78;;;2.42;99.20
49194;BME280;35029;50.804;12.866;2023-03-04T11:10:29;97902.25;;;2.62;98.62
49194;BME280;35029;50.804;12.866;2023-03-04T11:15:25;97886.88;;;2.49;99.04
49194;BME280;35029;50.804;12.866;2023-03-04T11:18:14;97878.47;;;2.45;98.83
49194;BME280;35029;50.804;12.866;2023-03-04T11:20:43;97874.88;;;2.46;98.78
49194;BME280;35029;50.804;12.866;2023-03-04T11:23:28;97888.06;;;2.64;98.85
49194;BME280;35029;50.804;12.866;2023-03-04T11:26:08;97889.88;;;2.64;98.19
49194;BME280;35029;50.804;12.866;2023-03-04T11:28:43;97886.56;;;2.72;97.95
49194;BME280;35029;50.804;12.866;2023-03-04T11:31:39;97882.13;;;2.72;98.41
49194;BME280;35029;50.804;12.866;2023-03-04T11:39:45;97885.81;;;2.79;98.01
49194;BME280;35029;50.804;12.866;2023-03-04T11:42:53;97872.72;;;2.79;97.56
49194;BME280;35029;50.804;12.866;2023-03-04T11:45:18;97860.91;;;2.75;97.26
49194;BME280;35029;50.804;12.866;2023-03-04T11:50:28;97885.00;;;2.79;98.55
49194;BME280;35029;50.804;12.866;2023-03-04T11:53:16;97877.13;;;2.88;98.42
49194;BME280;35029;50.804;12.866;2023-03-04T12:01:21;97858.50;;;2.92;97.39
49194;BME280;35029;50.804;12.866;2023-03-04T12:06:40;97853.00;;;2.95;97.37
49194;BME280;35029;50.804;12.866;2023-03-04T12:29:19;97840.47;;;2.88;98.89
49194;BME280;35029;50.804;12.866;2023-03-04T12:31:49;97836.63;;;2.83;98.69
49194;BME280;35029;50.804;12.866;2023-03-04T12:39:37;97825.53;;;2.99;98.85
49194;BME280;35029;50.804;12.866;2023-03-04T12:42:12;97826.34;;;2.99;98.71
49194;BME280;35029;50.804;12.866;2023-03-04T12:50:25;97819.22;;;3.19;97.69
49194;BME280;35029;50.804;12.866;2023-03-04T12:55:44;97822.25;;;3.25;97.91
49194;BME280;35029;50.804;12.866;2023-03-04T12:58:17;97812.34;;;3.18;98.09
49194;BME280;35029;50.804;12.866;2023-03-04T13:08:31;97811.63;;;3.26;98.32
49194;BME280;35029;50.804;12.866;2023-03-04T13:11:37;97797.97;;;3.22;97.74
49194;BME280;35029;50.804;12.866;2023-03-04T13:14:22;97797.66;;;3.26;97.67
49194;BME280;35029;50.804;12.866;2023-03-04T13:16:49;97806.97;;;3.38;98.21
49194;BME280;35029;50.804;12.866;2023-03-04T13:24:58;97790.59;;;3.36;97.89
49194;BME280;35029;50.804;12.866;2023-03-04T13:33:00;97778.22;;;3.46;96.33
49194;BME280;35029;50.804;12.866;2023-03-04T13:43:27;97780.34;;;3.61;95.31
49194;BME280;35029;50.804;12.866;2023-03-04T13:54:10;97756.22;;;3.75;93.55
49194;BME280;35029;50.804;12.866;2023-03-04T13:56:44;97744.38;;;3.71;94.53
49194;BME280;35029;50.804;12.866;2023-03-04T13:59:20;97755.22;;;3.76;93.19
49194;BME280;35029;50.804;12.866;2023-03-04T14:01:58;97769.91;;;3.87;92.99
49194;BME280;35029;50.804;12.866;2023-03-04T14:04:37;97724.63;;;3.59;93.25
49194;BME280;35029;50.804;12.866;2023-03-04T14:07:24;97768.94;;;3.88;92.60
49194;BME280;35029;50.804;12.866;2023-03-04T14:12:32;97756.44;;;3.82;92.69
49194;BME280;35029;50.804;12.866;2023-03-04T14:15:02;97741.00;;;3.79;92.81
49194;BME280;35029;50.804;12.866;2023-03-04T14:17:34;97754.47;;;3.84;93.12
49194;BME280;35029;50.804;12.866;2023-03-04T14:20:06;97751.84;;;3.84;93.35
49194;BME280;35029;50.804;12.866;2023-03-04T14:22:45;97746.91;;;3.81;92.87
49194;BME280;35029;50.804;12.866;2023-03-04T14:25:30;97742.31;;;3.83;92.92
49194;BME280;35029;50.804;12.866;2023-03-04T14:28:17;97731.50;;;3.78;92.98
49194;BME280;35029;50.804;12.866;2023-03-04T14:30:50;97735.66;;;3.88;92.77
49194;BME280;35029;50.804;12.866;2023-03-04T14:33:28;97738.78;;;3.92;92.28
49194;BME280;35029;50.804;12.866;2023-03-04T14:35:59;97732.59;;;3.93;92.00
49194;BME280;35029;50.804;12.866;2023-03-04T14:38:37;97741.94;;;3.96;91.58
49194;BME280;35029;50.804;12.866;2023-03-04T14:41:15;97731.47;;;3.96;92.99